sensor_id;sensor_type;location;lat;lon;timestamp;P1;durP1;ratioP1;P2;durP2;ratioP2
7657;SDS011;8462;53.156;8.220;2023-09-12T00:00:44;41.33;;;23.70;;
7657;SDS011;8462;53.156;8.220;2023-09-12T00:03:11;41.57;;;24.23;;
7657;SDS011;8462;53.156;8.220;2023-09-12T00:05:38;45.63;;;25.43;;
7657;SDS011;8462;53.156;8.220;2023-09-12T00:08:06;41.57;;;24.03;;
7657;SDS011;8462;53.156;8.220;2023-09-12T00:10:33;39.33;;;23.83;;
7657;SDS011;8462;53.156;8.220;2023-09-12T00:13:00;42.60;;;23.20;;
7657;SDS011;8462;53.156;8.220;2023-09-12T00:15:27;48.40;;;22.57;;
7657;SDS011;8462;53.156;8.220;2023-09-12T00:17:54;40.83;;;23.87;;
7657;SDS011;8462;53.156;8.220;2023-09-12T00:20:21;45.63;;;23.80;;
7657;SDS011;8462;53.156;8.220;2023-09-12T00:22:48;40.93;;;24.07;;
7657;SDS011;8462;53.156;8.220;2023-09-12T00:25:16;43.30;;;25.03;;
7657;SDS011;8462;53.156;8.220;2023-09-12T00:27:43;48.23;;;23.43;;
7657;SDS011;8462;53.156;8.220;2023-09-12T00:30:10;48.90;;;24.70;;
7657;SDS011;8462;53.156;8.220;2023-09-12T00:32:38;46.00;;;24.70;;
7657;SDS011;8462;53.156;8.220;2023-09-12T00:35:05;42.57;;;23.80;;
7657;SDS011;8462;53.156;8.220;2023-09-12T00:37:32;41.70;;;23.13;;
7657;SDS011;8462;53.156;8.220;2023-09-12T00:39:59;44.37;;;24.30;;
7657;SDS011;8462;53.156;8.220;2023-09-12T00:42:27;44.20;;;23.50;;
7657;SDS011;8462;53.156;8.220;2023-09-12T00:44:54;42.30;;;24.67;;
7657;SDS011;8462;53.156;8.220;2023-09-12T00:47:21;40.80;;;24.30;;
7657;SDS011;8462;53.156;8.220;2023-09-12T00:49:50;44.13;;;23.87;;
7657;SDS011;8462;53.156;8.220;2023-09-12T00:52:17;44.87;;;24.27;;
7657;SDS011;8462;53.156;8.220;2023-09-12T00:54:47;41.00;;;23.63;;
7657;SDS011;8462;53.156;8.220;2023-09-12T00:57:15;38.87;;;22.23;;
7657;SDS011;8462;53.156;8.220;2023-09-12T00:59:44;47.07;;;24.23;;
7657;SDS011;8462;53.156;8.220;2023-09-12T01:02:11;42.37;;;23.73;;
7657;SDS011;8462;53.156;8.220;2023-09-12T01:04:38;46.50;;;24.80;;
7657;SDS011;8462;53.156;8.220;2023-09-12T01:07:07;43.77;;;23.80;;
7657;SDS011;8462;53.156;8.220;2023-09-12T01:09:34;38.27;;;23.00;;
7657;SDS011;8462;53.156;8.220;2023-09-12T01:12:01;47.07;;;23.87;;
7657;SDS011;8462;53.156;8.220;2023-09-12T01:14:28;39.17;;;22.87;;
7657;SDS011;8462;53.156;8.220;2023-09-12T01:16:57;44.00;;;23.83;;
7657;SDS011;8462;53.156;8.220;2023-09-12T01:19:25;48.13;;;24.70;;
7657;SDS011;8462;53.156;8.220;2023-09-12T01:22:12;40.57;;;23.07;;
7657;SDS011;8462;53.156;8.220;2023-09-12T01:24:58;36.20;;;23.43;;
7657;SDS011;8462;53.156;8.220;2023-09-12T01:27:35;41.17;;;22.30;;
7657;SDS011;8462;53.156;8.220;2023-09-12T01:30:05;41.40;;;22.67;;
7657;SDS011;8462;53.156;8.220;2023-09-12T01:32:33;36.57;;;23.30;;
7657;SDS011;8462;53.156;8.220;2023-09-12T01:35:02;41.47;;;25.17;;
7657;SDS011;8462;53.156;8.220;2023-09-12T01:37:29;43.13;;;24.77;;
7657;SDS011;8462;53.156;8.220;2023-09-12T01:39:56;41.00;;;23.27;;
7657;SDS011;8462;53.156;8.220;2023-09-12T01:42:24;42.80;;;23.73;;
7657;SDS011;8462;53.156;8.220;2023-09-12T01:44:55;43.57;;;23.37;;
7657;SDS011;8462;53.156;8.220;2023-09-12T01:47:23;38.37;;;24.13;;
7657;SDS011;8462;53.156;8.220;2023-09-12T01:49:52;39.70;;;23.80;;
7657;SDS011;8462;53.156;8.220;2023-09-12T01:52:22;37.30;;;23.57;;
7657;SDS011;8462;53.156;8.220;2023-09-12T01:54:50;46.33;;;25.07;;
7657;SDS011;8462;53.156;8.220;2023-09-12T01:57:18;42.13;;;24.47;;
7657;SDS011;8462;53.156;8.220;2023-09-12T01:59:46;42.03;;;24.33;;
7657;SDS011;8462;53.156;8.220;2023-09-12T02:02:15;39.20;;;23.57;;
7657;SDS011;8462;53.156;8.220;2023-09-12T02:04:43;42.70;;;24.43;;
7657;SDS011;8462;53.156;8.220;2023-09-12T02:07:18;36.53;;;23.10;;
7657;SDS011;8462;53.156;8.220;2023-09-12T02:09:45;43.80;;;23.17;;
7657;SDS011;8462;53.156;8.220;2023-09-12T02:12:12;43.30;;;24.97;;
7657;SDS011;8462;53.156;8.220;2023-09-12T02:14:39;43.03;;;24.17;;
7657;SDS011;8462;53.156;8.220;2023-09-12T02:17:06;37.80;;;23.63;;
7657;SDS011;8462;53.156;8.220;2023-09-12T02:19:34;38.60;;;22.37;;
7657;SDS011;8462;53.156;8.220;2023-09-12T02:22:01;39.47;;;23.97;;
7657;SDS011;8462;53.156;8.220;2023-09-12T02:24:28;39.03;;;23.17;;
7657;SDS011;8462;53.156;8.220;2023-09-12T02:26:55;48.60;;;26.23;;
7657;SDS011;8462;53.156;8.220;2023-09-12T02:29:22;43.93;;;24.33;;
7657;SDS011;8462;53.156;8.220;2023-09-12T02:31:48;39.57;;;24.13;;
7657;SDS011;8462;53.156;8.220;2023-09-12T02:34:15;39.17;;;24.17;;
7657;SDS011;8462;53.156;8.220;2023-09-12T02:36:44;41.80;;;24.10;;
7657;SDS011;8462;53.156;8.220;2023-09-12T02:39:11;45.00;;;24.53;;
7657;SDS011;8462;53.156;8.220;2023-09-12T02:41:38;44.17;;;26.27;;
7657;SDS011;8462;53.156;8.220;2023-09-12T02:44:05;47.33;;;25.90;;
7657;SDS011;8462;53.156;8.220;2023-09-12T02:46:32;46.83;;;26.00;;
7657;SDS011;8462;53.156;8.220;2023-09-12T02:48:59;43.87;;;25.37;;
7657;SDS011;8462;53.156;8.220;2023-09-12T02:51:26;49.13;;;26.63;;
7657;SDS011;8462;53.156;8.220;2023-09-12T02:53:54;41.33;;;25.03;;
7657;SDS011;8462;53.156;8.220;2023-09-12T02:56:22;41.03;;;26.40;;
7657;SDS011;8462;53.156;8.220;2023-09-12T02:58:49;45.83;;;25.30;;
7657;SDS011;8462;53.156;8.220;2023-09-12T03:01:16;42.83;;;25.50;;
7657;SDS011;8462;53.156;8.220;2023-09-12T03:03:45;49.73;;;27.37;;
7657;SDS011;8462;53.156;8.220;2023-09-12T03:06:13;48.97;;;26.37;;
7657;SDS011;8462;53.156;8.220;2023-09-12T03:08:41;50.63;;;27.97;;
7657;SDS011;8462;53.156;8.220;2023-09-12T03:11:10;46.60;;;26.70;;
7657;SDS011;8462;53.156;8.220;2023-09-12T03:13:38;55.40;;;27.83;;
7657;SDS011;8462;53.156;8.220;2023-09-12T03:16:09;40.33;;;25.27;;
7657;SDS011;8462;53.156;8.220;2023-09-12T03:18:36;47.27;;;26.73;;
7657;SDS011;8462;53.156;8.220;2023-09-12T03:21:03;45.33;;;26.77;;
7657;SDS011;8462;53.156;8.220;2023-09-12T03:23:30;46.47;;;26.13;;
7657;SDS011;8462;53.156;8.220;2023-09-12T03:25:59;46.73;;;25.40;;
7657;SDS011;8462;53.156;8.220;2023-09-12T03:28:28;48.13;;;26.87;;
7657;SDS011;8462;53.156;8.220;2023-09-12T03:31:02;41.90;;;26.07;;
7657;SDS011;8462;53.156;8.220;2023-09-12T03:33:30;51.40;;;26.10;;
7657;SDS011;8462;53.156;8.220;2023-09-12T03:35:57;45.57;;;25.97;;
7657;SDS011;8462;53.156;8.220;2023-09-12T03:38:24;45.67;;;26.90;;
7657;SDS011;8462;53.156;8.220;2023-09-12T03:40:51;44.57;;;26.13;;
7657;SDS011;8462;53.156;8.220;2023-09-12T03:43:18;49.07;;;29.17;;
7657;SDS011;8462;53.156;8.220;2023-09-12T03:45:46;44.20;;;26.73;;
7657;SDS011;8462;53.156;8.220;2023-09-12T03:48:14;48.03;;;27.17;;
7657;SDS011;8462;53.156;8.220;2023-09-12T03:50:41;50.13;;;27.47;;
7657;SDS011;8462;53.156;8.220;2023-09-12T03:53:08;46.63;;;26.30;;
7657;SDS011;8462;53.156;8.220;2023-09-12T03:55:35;55.50;;;27.97;;
7657;SDS011;8462;53.156;8.220;2023-09-12T03:58:02;53.20;;;27.13;;
7657;SDS011;8462;53.156;8.220;2023-09-12T04:00:29;42.57;;;25.60;;
7657;SDS011;8462;53.156;8.220;2023-09-12T04:02:58;42.07;;;25.93;;
7657;SDS011;8462;53.156;8.220;2023-09-12T04:05:25;46.73;;;26.97;;
7657;SDS011;8462;53.156;8.220;2023-09-12T04:07:52;42.17;;;26.33;;
7657;SDS011;8462;53.156;8.220;2023-09-12T04:10:20;47.47;;;25.93;;
7657;SDS011;8462;53.156;8.220;2023-09-12T04:12:47;49.00;;;25.07;;
7657;SDS011;8462;53.156;8.220;2023-09-12T04:15:14;45.43;;;27.23;;
7657;SDS011;8462;53.156;8.220;2023-09-12T04:17:41;50.13;;;26.60;;
7657;SDS011;8462;53.156;8.220;2023-09-12T04:20:09;49.40;;;27.00;;
7657;SDS011;8462;53.156;8.220;2023-09-12T04:22:39;47.50;;;28.43;;
7657;SDS011;8462;53.156;8.220;2023-09-12T04:25:06;48.20;;;26.23;;
7657;SDS011;8462;53.156;8.220;2023-09-12T04:27:33;47.17;;;27.17;;
7657;SDS011;8462;53.156;8.220;2023-09-12T04:30:00;47.73;;;26.00;;
7657;SDS011;8462;53.156;8.220;2023-09-12T04:32:29;46.60;;;27.20;;
7657;SDS011;8462;53.156;8.220;2023-09-12T04:34:56;49.10;;;27.97;;
7657;SDS011;8462;53.156;8.220;2023-09-12T04:37:24;47.90;;;28.60;;
7657;SDS011;8462;53.156;8.220;2023-09-12T04:39:51;49.13;;;27.37;;
7657;SDS011;8462;53.156;8.220;2023-09-12T04:42:19;47.63;;;27.23;;
7657;SDS011;8462;53.156;8.220;2023-09-12T04:44:46;49.60;;;28.40;;
7657;SDS011;8462;53.156;8.220;2023-09-12T04:47:14;53.20;;;27.80;;
7657;SDS011;8462;53.156;8.220;2023-09-12T04:49:41;50.87;;;27.77;;
7657;SDS011;8462;53.156;8.220;2023-09-12T04:52:09;45.47;;;27.63;;
7657;SDS011;8462;53.156;8.220;2023-09-12T04:54:38;54.90;;;29.60;;
7657;SDS011;8462;53.156;8.220;2023-09-12T04:57:05;51.10;;;28.20;;
7657;SDS011;8462;53.156;8.220;2023-09-12T04:59:31;47.13;;;27.67;;
7657;SDS011;8462;53.156;8.220;2023-09-12T05:01:58;54.13;;;28.10;;
7657;SDS011;8462;53.156;8.220;2023-09-12T05:04:25;51.07;;;29.70;;
7657;SDS011;8462;53.156;8.220;2023-09-12T05:06:52;50.13;;;28.13;;
7657;SDS011;8462;53.156;8.220;2023-09-12T05:09:19;55.67;;;28.70;;
7657;SDS011;8462;53.156;8.220;2023-09-12T05:11:47;57.43;;;31.97;;
7657;SDS011;8462;53.156;8.220;2023-09-12T05:14:15;53.43;;;29.83;;
7657;SDS011;8462;53.156;8.220;2023-09-12T05:16:42;56.90;;;29.77;;
7657;SDS011;8462;53.156;8.220;2023-09-12T05:19:09;53.27;;;29.97;;
7657;SDS011;8462;53.156;8.220;2023-09-12T05:21:36;56.30;;;31.13;;
7657;SDS011;8462;53.156;8.220;2023-09-12T05:24:04;50.17;;;28.57;;
7657;SDS011;8462;53.156;8.220;2023-09-12T05:26:31;49.87;;;28.27;;
7657;SDS011;8462;53.156;8.220;2023-09-12T05:28:59;54.90;;;29.57;;
7657;SDS011;8462;53.156;8.220;2023-09-12T05:31:27;55.20;;;28.67;;
7657;SDS011;8462;53.156;8.220;2023-09-12T05:33:54;52.27;;;30.60;;
7657;SDS011;8462;53.156;8.220;2023-09-12T05:36:21;49.63;;;29.30;;
7657;SDS011;8462;53.156;8.220;2023-09-12T05:38:48;54.20;;;29.53;;
7657;SDS011;8462;53.156;8.220;2023-09-12T05:41:14;54.53;;;29.03;;
7657;SDS011;8462;53.156;8.220;2023-09-12T05:43:41;51.70;;;28.90;;
7657;SDS011;8462;53.156;8.220;2023-09-12T05:46:10;55.90;;;28.50;;
7657;SDS011;8462;53.156;8.220;2023-09-12T05:48:36;58.93;;;30.90;;
7657;SDS011;8462;53.156;8.220;2023-09-12T05:51:03;48.73;;;28.03;;
7657;SDS011;8462;53.156;8.220;2023-09-12T05:53:30;46.30;;;26.87;;
7657;SDS011;8462;53.156;8.220;2023-09-12T05:55:57;56.23;;;29.03;;
7657;SDS011;8462;53.156;8.220;2023-09-12T05:58:24;50.43;;;29.17;;
7657;SDS011;8462;53.156;8.220;2023-09-12T06:00:52;46.83;;;29.50;;
7657;SDS011;8462;53.156;8.220;2023-09-12T06:03:20;49.53;;;29.67;;
7657;SDS011;8462;53.156;8.220;2023-09-12T06:05:47;49.43;;;29.33;;
7657;SDS011;8462;53.156;8.220;2023-09-12T06:08:14;46.70;;;27.10;;
7657;SDS011;8462;53.156;8.220;2023-09-12T06:10:41;51.20;;;27.80;;
7657;SDS011;8462;53.156;8.220;2023-09-12T06:13:08;42.90;;;27.07;;
7657;SDS011;8462;53.156;8.220;2023-09-12T06:15:35;45.23;;;26.80;;
7657;SDS011;8462;53.156;8.220;2023-09-12T06:18:01;48.53;;;27.57;;
7657;SDS011;8462;53.156;8.220;2023-09-12T06:20:32;45.93;;;26.23;;
7657;SDS011;8462;53.156;8.220;2023-09-12T06:22:59;46.67;;;26.20;;
7657;SDS011;8462;53.156;8.220;2023-09-12T06:25:25;45.17;;;26.40;;
7657;SDS011;8462;53.156;8.220;2023-09-12T06:27:54;48.40;;;27.20;;
7657;SDS011;8462;53.156;8.220;2023-09-12T06:30:21;49.87;;;26.17;;
7657;SDS011;8462;53.156;8.220;2023-09-12T06:32:47;41.20;;;25.23;;
7657;SDS011;8462;53.156;8.220;2023-09-12T06:35:14;46.10;;;27.00;;
7657;SDS011;8462;53.156;8.220;2023-09-12T06:37:43;48.83;;;25.40;;
7657;SDS011;8462;53.156;8.220;2023-09-12T06:40:12;43.10;;;26.80;;
7657;SDS011;8462;53.156;8.220;2023-09-12T06:42:39;40.57;;;25.33;;
7657;SDS011;8462;53.156;8.220;2023-09-12T06:45:06;37.33;;;24.10;;
7657;SDS011;8462;53.156;8.220;2023-09-12T06:47:33;40.50;;;24.17;;
7657;SDS011;8462;53.156;8.220;2023-09-12T06:50:01;39.70;;;25.10;;
7657;SDS011;8462;53.156;8.220;2023-09-12T06:52:30;39.83;;;24.90;;
7657;SDS011;8462;53.156;8.220;2023-09-12T06:54:58;40.60;;;23.93;;
7657;SDS011;8462;53.156;8.220;2023-09-12T06:57:25;42.93;;;25.40;;
7657;SDS011;8462;53.156;8.220;2023-09-12T06:59:52;37.20;;;23.77;;
7657;SDS011;8462;53.156;8.220;2023-09-12T07:02:19;40.20;;;24.70;;
7657;SDS011;8462;53.156;8.220;2023-09-12T07:04:46;39.83;;;24.17;;
7657;SDS011;8462;53.156;8.220;2023-09-12T07:07:13;35.07;;;22.97;;
7657;SDS011;8462;53.156;8.220;2023-09-12T07:09:41;37.37;;;21.97;;
7657;SDS011;8462;53.156;8.220;2023-09-12T07:12:09;38.87;;;24.80;;
7657;SDS011;8462;53.156;8.220;2023-09-12T07:14:36;36.23;;;22.70;;
7657;SDS011;8462;53.156;8.220;2023-09-12T07:17:05;36.47;;;21.90;;
7657;SDS011;8462;53.156;8.220;2023-09-12T07:19:32;34.60;;;21.60;;
7657;SDS011;8462;53.156;8.220;2023-09-12T07:21:59;36.93;;;22.77;;
7657;SDS011;8462;53.156;8.220;2023-09-12T07:24:26;36.60;;;23.60;;
7657;SDS011;8462;53.156;8.220;2023-09-12T07:26:54;32.73;;;20.93;;
7657;SDS011;8462;53.156;8.220;2023-09-12T07:29:23;35.57;;;22.60;;
7657;SDS011;8462;53.156;8.220;2023-09-12T07:31:51;33.93;;;21.43;;
7657;SDS011;8462;53.156;8.220;2023-09-12T07:34:18;35.27;;;23.17;;
7657;SDS011;8462;53.156;8.220;2023-09-12T07:36:47;37.80;;;22.97;;
7657;SDS011;8462;53.156;8.220;2023-09-12T07:39:14;38.10;;;22.57;;
7657;SDS011;8462;53.156;8.220;2023-09-12T07:41:41;36.13;;;22.53;;
7657;SDS011;8462;53.156;8.220;2023-09-12T07:44:11;38.03;;;23.60;;
7657;SDS011;8462;53.156;8.220;2023-09-12T07:46:41;35.57;;;22.23;;
7657;SDS011;8462;53.156;8.220;2023-09-12T07:49:10;34.77;;;22.10;;
7657;SDS011;8462;53.156;8.220;2023-09-12T07:51:37;36.63;;;22.07;;
7657;SDS011;8462;53.156;8.220;2023-09-12T07:54:04;34.47;;;22.30;;
7657;SDS011;8462;53.156;8.220;2023-09-12T07:56:31;32.50;;;20.50;;
7657;SDS011;8462;53.156;8.220;2023-09-12T07:58:58;31.90;;;22.13;;
7657;SDS011;8462;53.156;8.220;2023-09-12T08:01:24;33.23;;;21.53;;
7657;SDS011;8462;53.156;8.220;2023-09-12T08:03:53;31.23;;;20.37;;
7657;SDS011;8462;53.156;8.220;2023-09-12T08:06:20;29.27;;;18.97;;
7657;SDS011;8462;53.156;8.220;2023-09-12T08:08:49;30.83;;;20.67;;
7657;SDS011;8462;53.156;8.220;2023-09-12T08:11:15;36.63;;;20.40;;
7657;SDS011;8462;53.156;8.220;2023-09-12T08:13:42;35.77;;;21.43;;
7657;SDS011;8462;53.156;8.220;2023-09-12T08:16:10;33.37;;;21.57;;
7657;SDS011;8462;53.156;8.220;2023-09-12T08:18:37;31.20;;;19.80;;
7657;SDS011;8462;53.156;8.220;2023-09-12T08:21:05;27.53;;;19.07;;
7657;SDS011;8462;53.156;8.220;2023-09-12T08:23:32;31.60;;;20.07;;
7657;SDS011;8462;53.156;8.220;2023-09-12T08:25:59;28.43;;;18.93;;
7657;SDS011;8462;53.156;8.220;2023-09-12T08:28:26;32.47;;;19.70;;
7657;SDS011;8462;53.156;8.220;2023-09-12T08:30:53;32.13;;;20.27;;
7657;SDS011;8462;53.156;8.220;2023-09-12T08:33:20;27.87;;;20.70;;
7657;SDS011;8462;53.156;8.220;2023-09-12T08:35:48;29.90;;;19.77;;
7657;SDS011;8462;53.156;8.220;2023-09-12T08:38:18;29.23;;;20.27;;
7657;SDS011;8462;53.156;8.220;2023-09-12T08:40:47;29.27;;;19.20;;
7657;SDS011;8462;53.156;8.220;2023-09-12T08:43:16;29.90;;;18.37;;
7657;SDS011;8462;53.156;8.220;2023-09-12T08:45:43;30.87;;;18.57;;
7657;SDS011;8462;53.156;8.220;2023-09-12T08:48:12;29.37;;;18.77;;
7657;SDS011;8462;53.156;8.220;2023-09-12T08:50:41;30.43;;;19.27;;
7657;SDS011;8462;53.156;8.220;2023-09-12T08:53:09;33.70;;;18.90;;
7657;SDS011;8462;53.156;8.220;2023-09-12T08:55:38;29.47;;;18.33;;
7657;SDS011;8462;53.156;8.220;2023-09-12T08:58:07;32.07;;;17.80;;
7657;SDS011;8462;53.156;8.220;2023-09-12T09:00:34;25.73;;;17.93;;
7657;SDS011;8462;53.156;8.220;2023-09-12T09:03:02;28.90;;;18.70;;
7657;SDS011;8462;53.156;8.220;2023-09-12T09:05:30;28.63;;;18.47;;
7657;SDS011;8462;53.156;8.220;2023-09-12T09:07:59;34.43;;;20.17;;
7657;SDS011;8462;53.156;8.220;2023-09-12T09:10:28;31.27;;;18.83;;
7657;SDS011;8462;53.156;8.220;2023-09-12T09:12:58;30.43;;;17.63;;
7657;SDS011;8462;53.156;8.220;2023-09-12T09:15:26;27.53;;;17.30;;
7657;SDS011;8462;53.156;8.220;2023-09-12T09:17:54;25.13;;;15.83;;
7657;SDS011;8462;53.156;8.220;2023-09-12T09:20:26;25.83;;;16.17;;
7657;SDS011;8462;53.156;8.220;2023-09-12T09:22:58;23.10;;;15.50;;
7657;SDS011;8462;53.156;8.220;2023-09-12T09:25:26;23.50;;;16.23;;
7657;SDS011;8462;53.156;8.220;2023-09-12T09:27:53;22.90;;;14.83;;
7657;SDS011;8462;53.156;8.220;2023-09-12T09:30:41;21.30;;;14.93;;
7657;SDS011;8462;53.156;8.220;2023-09-12T09:33:09;21.80;;;14.27;;
7657;SDS011;8462;53.156;8.220;2023-09-12T09:35:36;19.60;;;13.53;;
7657;SDS011;8462;53.156;8.220;2023-09-12T09:38:05;23.50;;;13.30;;
7657;SDS011;8462;53.156;8.220;2023-09-12T09:40:34;17.07;;;13.10;;
7657;SDS011;8462;53.156;8.220;2023-09-12T09:43:02;16.53;;;12.17;;
7657;SDS011;8462;53.156;8.220;2023-09-12T09:45:30;20.67;;;13.17;;
7657;SDS011;8462;53.156;8.220;2023-09-12T09:48:03;19.70;;;12.87;;
7657;SDS011;8462;53.156;8.220;2023-09-12T09:50:33;18.10;;;12.40;;
7657;SDS011;8462;53.156;8.220;2023-09-12T09:53:00;21.17;;;15.07;;
7657;SDS011;8462;53.156;8.220;2023-09-12T09:55:29;24.80;;;15.23;;
7657;SDS011;8462;53.156;8.220;2023-09-12T09:57:57;19.73;;;12.37;;
7657;SDS011;8462;53.156;8.220;2023-09-12T10:00:24;21.80;;;13.37;;
7657;SDS011;8462;53.156;8.220;2023-09-12T10:02:52;20.37;;;12.37;;
7657;SDS011;8462;53.156;8.220;2023-09-12T10:05:22;20.37;;;13.50;;
7657;SDS011;8462;53.156;8.220;2023-09-12T10:07:50;19.00;;;13.43;;
7657;SDS011;8462;53.156;8.220;2023-09-12T10:10:18;19.17;;;12.70;;
7657;SDS011;8462;53.156;8.220;2023-09-12T10:12:48;21.80;;;13.60;;
7657;SDS011;8462;53.156;8.220;2023-09-12T10:15:17;19.10;;;11.87;;
7657;SDS011;8462;53.156;8.220;2023-09-12T10:17:46;21.47;;;13.53;;
7657;SDS011;8462;53.156;8.220;2023-09-12T10:20:19;19.33;;;14.00;;
7657;SDS011;8462;53.156;8.220;2023-09-12T10:22:53;20.40;;;14.83;;
7657;SDS011;8462;53.156;8.220;2023-09-12T10:25:27;20.80;;;14.93;;
7657;SDS011;8462;53.156;8.220;2023-09-12T10:27:57;19.00;;;13.10;;
7657;SDS011;8462;53.156;8.220;2023-09-12T10:30:25;20.37;;;13.30;;
7657;SDS011;8462;53.156;8.220;2023-09-12T10:32:53;20.27;;;13.60;;
7657;SDS011;8462;53.156;8.220;2023-09-12T10:35:21;30.33;;;21.53;;
7657;SDS011;8462;53.156;8.220;2023-09-12T10:37:48;28.93;;;20.03;;
7657;SDS011;8462;53.156;8.220;2023-09-12T10:40:19;23.73;;;14.40;;
7657;SDS011;8462;53.156;8.220;2023-09-12T10:42:47;17.47;;;12.37;;
7657;SDS011;8462;53.156;8.220;2023-09-12T10:45:15;16.70;;;12.37;;
7657;SDS011;8462;53.156;8.220;2023-09-12T10:47:43;18.67;;;13.33;;
7657;SDS011;8462;53.156;8.220;2023-09-12T10:50:10;17.97;;;12.17;;
7657;SDS011;8462;53.156;8.220;2023-09-12T10:52:38;19.70;;;13.55;;
7657;SDS011;8462;53.156;8.220;2023-09-12T10:55:06;19.25;;;13.65;;
7657;SDS011;8462;53.156;8.220;2023-09-12T10:57:35;19.77;;;12.50;;
7657;SDS011;8462;53.156;8.220;2023-09-12T11:00:28;17.13;;;12.90;;
7657;SDS011;8462;53.156;8.220;2023-09-12T11:02:58;20.45;;;13.60;;
7657;SDS011;8462;53.156;8.220;2023-09-12T11:05:37;18.40;;;12.77;;
7657;SDS011;8462;53.156;8.220;2023-09-12T11:08:18;19.65;;;13.00;;
7657;SDS011;8462;53.156;8.220;2023-09-12T11:10:44;20.08;;;13.85;;
7657;SDS011;8462;53.156;8.220;2023-09-12T11:13:38;18.92;;;13.40;;
7657;SDS011;8462;53.156;8.220;2023-09-12T11:16:12;17.48;;;12.70;;
7657;SDS011;8462;53.156;8.220;2023-09-12T11:21:38;17.25;;;12.02;;
7657;SDS011;8462;53.156;8.220;2023-09-12T11:24:05;20.63;;;13.00;;
7657;SDS011;8462;53.156;8.220;2023-09-12T11:26:32;16.80;;;13.50;;
7657;SDS011;8462;53.156;8.220;2023-09-12T11:29:10;19.77;;;12.20;;
7657;SDS011;8462;53.156;8.220;2023-09-12T11:31:38;15.20;;;11.73;;
7657;SDS011;8462;53.156;8.220;2023-09-12T11:34:08;19.08;;;13.05;;
7657;SDS011;8462;53.156;8.220;2023-09-12T11:36:38;18.30;;;11.85;;
7657;SDS011;8462;53.156;8.220;2023-09-12T11:39:21;16.52;;;11.10;;
7657;SDS011;8462;53.156;8.220;2023-09-12T11:41:49;16.23;;;9.77;;
7657;SDS011;8462;53.156;8.220;2023-09-12T11:44:18;14.60;;;10.70;;
7657;SDS011;8462;53.156;8.220;2023-09-12T11:46:47;15.48;;;10.60;;
7657;SDS011;8462;53.156;8.220;2023-09-12T11:49:15;15.55;;;10.95;;
7657;SDS011;8462;53.156;8.220;2023-09-12T11:51:46;14.48;;;10.13;;
7657;SDS011;8462;53.156;8.220;2023-09-12T11:54:14;12.85;;;8.95;;
7657;SDS011;8462;53.156;8.220;2023-09-12T11:56:41;16.05;;;11.20;;
7657;SDS011;8462;53.156;8.220;2023-09-12T11:59:09;16.05;;;10.02;;
7657;SDS011;8462;53.156;8.220;2023-09-12T12:01:38;14.25;;;10.20;;
7657;SDS011;8462;53.156;8.220;2023-09-12T12:04:05;14.73;;;10.15;;
7657;SDS011;8462;53.156;8.220;2023-09-12T12:06:32;17.00;;;11.05;;
7657;SDS011;8462;53.156;8.220;2023-09-12T12:09:00;12.40;;;9.07;;
7657;SDS011;8462;53.156;8.220;2023-09-12T12:11:29;12.35;;;8.35;;
7657;SDS011;8462;53.156;8.220;2023-09-12T12:13:57;13.18;;;8.63;;
7657;SDS011;8462;53.156;8.220;2023-09-12T12:16:25;11.65;;;8.82;;
7657;SDS011;8462;53.156;8.220;2023-09-12T12:18:53;12.13;;;8.55;;
7657;SDS011;8462;53.156;8.220;2023-09-12T12:21:22;13.15;;;9.10;;
7657;SDS011;8462;53.156;8.220;2023-09-12T12:23:58;13.98;;;9.55;;
7657;SDS011;8462;53.156;8.220;2023-09-12T12:26:26;14.88;;;8.93;;
7657;SDS011;8462;53.156;8.220;2023-09-12T12:28:53;9.63;;;7.30;;
7657;SDS011;8462;53.156;8.220;2023-09-12T12:31:22;13.43;;;10.15;;
7657;SDS011;8462;53.156;8.220;2023-09-12T12:33:53;10.73;;;8.13;;
7657;SDS011;8462;53.156;8.220;2023-09-12T12:36:21;9.30;;;7.50;;
7657;SDS011;8462;53.156;8.220;2023-09-12T12:38:48;13.70;;;8.73;;
7657;SDS011;8462;53.156;8.220;2023-09-12T12:41:16;10.18;;;7.40;;
7657;SDS011;8462;53.156;8.220;2023-09-12T12:43:49;11.70;;;8.93;;
7657;SDS011;8462;53.156;8.220;2023-09-12T12:46:17;10.18;;;8.38;;
7657;SDS011;8462;53.156;8.220;2023-09-12T12:48:49;9.73;;;7.03;;
7657;SDS011;8462;53.156;8.220;2023-09-12T12:51:18;9.48;;;7.10;;
7657;SDS011;8462;53.156;8.220;2023-09-12T12:53:48;8.95;;;7.45;;
7657;SDS011;8462;53.156;8.220;2023-09-12T12:56:16;10.70;;;7.45;;
7657;SDS011;8462;53.156;8.220;2023-09-12T12:58:45;12.20;;;8.25;;
7657;SDS011;8462;53.156;8.220;2023-09-12T13:01:13;10.98;;;8.05;;
7657;SDS011;8462;53.156;8.220;2023-09-12T13:03:41;8.50;;;6.80;;
7657;SDS011;8462;53.156;8.220;2023-09-12T13:06:10;10.43;;;7.93;;
7657;SDS011;8462;53.156;8.220;2023-09-12T13:08:44;10.38;;;7.43;;
7657;SDS011;8462;53.156;8.220;2023-09-12T13:11:12;9.95;;;6.68;;
7657;SDS011;8462;53.156;8.220;2023-09-12T13:13:40;10.85;;;7.38;;
7657;SDS011;8462;53.156;8.220;2023-09-12T13:16:09;8.85;;;7.68;;
7657;SDS011;8462;53.156;8.220;2023-09-12T13:18:39;10.65;;;8.15;;
7657;SDS011;8462;53.156;8.220;2023-09-12T13:21:06;9.98;;;7.60;;
7657;SDS011;8462;53.156;8.220;2023-09-12T13:23:35;11.35;;;7.40;;
7657;SDS011;8462;53.156;8.220;2023-09-12T13:26:05;14.27;;;7.78;;
7657;SDS011;8462;53.156;8.220;2023-09-12T13:28:34;13.13;;;8.07;;
7657;SDS011;8462;53.156;8.220;2023-09-12T13:31:01;10.10;;;7.60;;
7657;SDS011;8462;53.156;8.220;2023-09-12T13:33:28;10.25;;;7.22;;
7657;SDS011;8462;53.156;8.220;2023-09-12T13:35:55;11.98;;;8.15;;
7657;SDS011;8462;53.156;8.220;2023-09-12T13:38:22;10.77;;;8.05;;
7657;SDS011;8462;53.156;8.220;2023-09-12T13:40:50;12.45;;;7.95;;
7657;SDS011;8462;53.156;8.220;2023-09-12T13:43:18;11.77;;;7.00;;
7657;SDS011;8462;53.156;8.220;2023-09-12T13:45:45;10.98;;;8.48;;
7657;SDS011;8462;53.156;8.220;2023-09-12T13:48:12;12.02;;;7.63;;
7657;SDS011;8462;53.156;8.220;2023-09-12T13:50:39;10.95;;;7.72;;
7657;SDS011;8462;53.156;8.220;2023-09-12T13:53:08;10.45;;;8.20;;
7657;SDS011;8462;53.156;8.220;2023-09-12T13:55:36;15.05;;;8.00;;
7657;SDS011;8462;53.156;8.220;2023-09-12T13:58:04;9.90;;;6.78;;
7657;SDS011;8462;53.156;8.220;2023-09-12T14:00:33;12.57;;;7.50;;
7657;SDS011;8462;53.156;8.220;2023-09-12T14:03:01;10.73;;;7.25;;
7657;SDS011;8462;53.156;8.220;2023-09-12T14:05:28;11.15;;;6.78;;
7657;SDS011;8462;53.156;8.220;2023-09-12T14:07:55;11.18;;;7.70;;
7657;SDS011;8462;53.156;8.220;2023-09-12T14:10:21;12.88;;;8.68;;
7657;SDS011;8462;53.156;8.220;2023-09-12T14:12:48;11.10;;;7.88;;
7657;SDS011;8462;53.156;8.220;2023-09-12T14:15:15;11.73;;;7.05;;
7657;SDS011;8462;53.156;8.220;2023-09-12T14:17:43;15.05;;;7.35;;
7657;SDS011;8462;53.156;8.220;2023-09-12T14:20:10;8.82;;;5.95;;
7657;SDS011;8462;53.156;8.220;2023-09-12T14:22:40;7.93;;;5.38;;
7657;SDS011;8462;53.156;8.220;2023-09-12T14:25:08;9.13;;;6.70;;
7657;SDS011;8462;53.156;8.220;2023-09-12T14:27:41;8.95;;;6.28;;
7657;SDS011;8462;53.156;8.220;2023-09-12T14:30:09;9.05;;;5.50;;
7657;SDS011;8462;53.156;8.220;2023-09-12T14:32:36;8.23;;;6.47;;
7657;SDS011;8462;53.156;8.220;2023-09-12T14:35:05;9.82;;;7.50;;
7657;SDS011;8462;53.156;8.220;2023-09-12T14:37:33;10.02;;;6.75;;
7657;SDS011;8462;53.156;8.220;2023-09-12T14:40:02;10.23;;;7.20;;
7657;SDS011;8462;53.156;8.220;2023-09-12T14:42:31;8.35;;;6.43;;
7657;SDS011;8462;53.156;8.220;2023-09-12T14:44:58;8.38;;;6.35;;
7657;SDS011;8462;53.156;8.220;2023-09-12T14:47:24;8.52;;;5.47;;
7657;SDS011;8462;53.156;8.220;2023-09-12T14:49:53;9.93;;;6.85;;
7657;SDS011;8462;53.156;8.220;2023-09-12T14:52:21;8.35;;;6.20;;
7657;SDS011;8462;53.156;8.220;2023-09-12T14:54:48;10.55;;;6.35;;
7657;SDS011;8462;53.156;8.220;2023-09-12T14:57:15;10.40;;;6.72;;
7657;SDS011;8462;53.156;8.220;2023-09-12T14:59:41;10.60;;;6.90;;